sensor_id;sensor_type;location;lat;lon;timestamp;pressure;altitude;pressure_sealevel;temperature;humidity
21900;BME280;11114;50.658;12.704;2022-10-16T00:01:27;95859.00;;;15.87;85.31
21900;BME280;11114;50.658;12.704;2022-10-16T00:03:55;95844.63;;;15.90;85.28
21900;BME280;11114;50.658;12.704;2022-10-16T00:06:23;95858.59;;;15.90;85.20
21900;BME280;11114;50.658;12.704;2022-10-16T00:08:50;95857.78;;;15.90;85.29
21900;BME280;11114;50.658;12.704;2022-10-16T00:11:26;95869.09;;;15.90;85.35
21900;BME280;11114;50.658;12.704;2022-10-16T00:13:58;95876.00;;;15.91;85.44
21900;BME280;11114;50.658;12.704;2022-10-16T00:16:26;95882.09;;;15.92;85.45
21900;BME280;11114;50.658;12.704;2022-10-16T00:18:54;95879.25;;;15.93;85.63
21900;BME280;11114;50.658;12.704;2022-10-16T00:21:23;95882.69;;;15.94;85.80
21900;BME280;11114;50.658;12.704;2022-10-16T00:23:59;95878.03;;;15.96;85.86
21900;BME280;11114;50.658;12.704;2022-10-16T00:26:28;95888.38;;;15.97;85.84
21900;BME280;11114;50.658;12.704;2022-10-16T00:28:55;95886.56;;;15.98;85.91
21900;BME280;11114;50.658;12.704;2022-10-16T00:31:22;95906.41;;;16.00;86.05
21900;BME280;11114;50.658;12.704;2022-10-16T00:33:50;95905.41;;;16.01;86.17
21900;BME280;11114;50.658;12.704;2022-10-16T00:36:20;95914.94;;;16.02;86.18
21900;BME280;11114;50.658;12.704;2022-10-16T00:38:50;95912.91;;;16.04;86.23
21900;BME280;11114;50.658;12.704;2022-10-16T00:41:19;95912.72;;;16.06;85.95
21900;BME280;11114;50.658;12.704;2022-10-16T00:43:55;95906.66;;;16.05;86.17
21900;BME280;11114;50.658;12.704;2022-10-16T00:46:45;95904.59;;;16.07;86.09
21900;BME280;11114;50.658;12.704;2022-10-16T00:49:16;95896.31;;;16.10;86.12
21900;BME280;11114;50.658;12.704;2022-10-16T00:51:52;95901.59;;;16.10;86.05
21900;BME280;11114;50.658;12.704;2022-10-16T00:54:26;95904.84;;;16.12;86.03
21900;BME280;11114;50.658;12.704;2022-10-16T00:56:57;95901.22;;;16.13;86.04
21900;BME280;11114;50.658;12.704;2022-10-16T00:59:28;95903.63;;;16.15;86.01
21900;BME280;11114;50.658;12.704;2022-10-16T01:01:57;95910.72;;;16.14;85.86
21900;BME280;11114;50.658;12.704;2022-10-16T01:04:25;95912.34;;;16.15;86.05
21900;BME280;11114;50.658;12.704;2022-10-16T01:10:02;95914.16;;;16.15;86.09
21900;BME280;11114;50.658;12.704;2022-10-16T01:18:19;95903.63;;;16.15;85.63
21900;BME280;11114;50.658;12.704;2022-10-16T01:28:29;95906.06;;;16.16;85.12
21900;BME280;11114;50.658;12.704;2022-10-16T01:31:00;95913.97;;;16.16;84.99
21900;BME280;11114;50.658;12.704;2022-10-16T01:33:33;95911.75;;;16.13;84.94
21900;BME280;11114;50.658;12.704;2022-10-16T01:36:07;95911.91;;;16.12;84.79
21900;BME280;11114;50.658;12.704;2022-10-16T01:38:38;95904.22;;;16.10;84.97
21900;BME280;11114;50.658;12.704;2022-10-16T01:41:11;95899.97;;;16.09;84.74
21900;BME280;11114;50.658;12.704;2022-10-16T01:43:47;95903.22;;;16.11;84.55
21900;BME280;11114;50.658;12.704;2022-10-16T01:46:17;95911.13;;;16.11;84.45
21900;BME280;11114;50.658;12.704;2022-10-16T01:48:46;95907.66;;;16.11;84.49
21900;BME280;11114;50.658;12.704;2022-10-16T01:51:14;95903.84;;;16.13;84.25
21900;BME280;11114;50.658;12.704;2022-10-16T01:53:46;95901.59;;;16.10;84.16
21900;BME280;11114;50.658;12.704;2022-10-16T01:56:16;95908.88;;;16.08;84.05
21900;BME280;11114;50.658;12.704;2022-10-16T01:59:04;95906.25;;;16.08;84.12
21900;BME280;11114;50.658;12.704;2022-10-16T02:01:33;95909.28;;;16.05;84.14
21900;BME280;11114;50.658;12.704;2022-10-16T02:04:09;95911.91;;;16.05;84.08
21900;BME280;11114;50.658;12.704;2022-10-16T02:06:38;95918.19;;;16.04;84.11
21900;BME280;11114;50.658;12.704;2022-10-16T02:09:05;95917.56;;;16.02;84.29
21900;BME280;11114;50.658;12.704;2022-10-16T02:11:32;95912.09;;;16.04;84.33
21900;BME280;11114;50.658;12.704;2022-10-16T02:14:02;95926.69;;;16.06;84.43
21900;BME280;11114;50.658;12.704;2022-10-16T02:16:36;95918.59;;;16.08;84.62
21900;BME280;11114;50.658;12.704;2022-10-16T02:19:05;95928.72;;;16.11;84.53
21900;BME280;11114;50.658;12.704;2022-10-16T02:21:55;95920.66;;;16.12;84.29
21900;BME280;11114;50.658;12.704;2022-10-16T02:24:31;95906.47;;;16.13;84.38
21900;BME280;11114;50.658;12.704;2022-10-16T02:29:30;95913.16;;;16.16;84.38
21900;BME280;11114;50.658;12.704;2022-10-16T02:32:02;95911.31;;;16.16;84.20
21900;BME280;11114;50.658;12.704;2022-10-16T02:34:32;95900.78;;;16.16;84.23
21900;BME280;11114;50.658;12.704;2022-10-16T02:37:01;95904.03;;;16.18;84.10
21900;BME280;11114;50.658;12.704;2022-10-16T02:39:30;95909.53;;;16.17;84.19
21900;BME280;11114;50.658;12.704;2022-10-16T02:41:57;95913.78;;;16.18;84.29
21900;BME280;11114;50.658;12.704;2022-10-16T02:44:24;95912.94;;;16.17;84.19
21900;BME280;11114;50.658;12.704;2022-10-16T02:46:51;95911.31;;;16.16;84.19
21900;BME280;11114;50.658;12.704;2022-10-16T02:49:18;95912.16;;;16.17;84.26
21900;BME280;11114;50.658;12.704;2022-10-16T02:51:45;95910.53;;;16.16;84.18
21900;BME280;11114;50.658;12.704;2022-10-16T02:54:12;95907.28;;;16.14;84.15
21900;BME280;11114;50.658;12.704;2022-10-16T02:56:39;95900.59;;;16.11;84.23
21900;BME280;11114;50.658;12.704;2022-10-16T02:59:06;95913.97;;;16.10;84.42
21900;BME280;11114;50.658;12.704;2022-10-16T03:01:33;95924.03;;;16.06;84.45
21900;BME280;11114;50.658;12.704;2022-10-16T03:04:00;95910.47;;;16.03;84.59
21900;BME280;11114;50.658;12.704;2022-10-16T03:06:26;95923.47;;;16.04;84.70
21900;BME280;11114;50.658;12.704;2022-10-16T03:08:53;95919.81;;;16.05;84.72
21900;BME280;11114;50.658;12.704;2022-10-16T03:11:20;95924.25;;;16.05;84.67
21900;BME280;11114;50.658;12.704;2022-10-16T03:13:47;95921.00;;;16.03;84.68
21900;BME280;11114;50.658;12.704;2022-10-16T03:16:13;95918.38;;;16.03;84.79
21900;BME280;11114;50.658;12.704;2022-10-16T03:18:40;95930.53;;;16.04;84.94
21900;BME280;11114;50.658;12.704;2022-10-16T03:21:07;95928.72;;;16.04;84.75
21900;BME280;11114;50.658;12.704;2022-10-16T03:23:34;95939.44;;;16.03;84.90
21900;BME280;11114;50.658;12.704;2022-10-16T03:26:01;95931.53;;;16.03;84.82
21900;BME280;11114;50.658;12.704;2022-10-16T03:28:27;95933.38;;;16.02;84.83
21900;BME280;11114;50.658;12.704;2022-10-16T03:30:54;95927.09;;;16.03;84.66
21900;BME280;11114;50.658;12.704;2022-10-16T03:33:24;95936.41;;;16.06;85.04
21900;BME280;11114;50.658;12.704;2022-10-16T03:35:54;95926.69;;;16.06;85.29
21900;BME280;11114;50.658;12.704;2022-10-16T03:38:21;95933.38;;;16.02;85.57
21900;BME280;11114;50.658;12.704;2022-10-16T03:40:48;95936.59;;;15.98;85.82
21900;BME280;11114;50.658;12.704;2022-10-16T03:43:15;95934.34;;;15.95;85.89
21900;BME280;11114;50.658;12.704;2022-10-16T03:45:42;95944.69;;;15.96;86.28
21900;BME280;11114;50.658;12.704;2022-10-16T03:48:09;95958.44;;;15.98;86.21
21900;BME280;11114;50.658;12.704;2022-10-16T03:50:35;95961.88;;;15.92;86.50
21900;BME280;11114;50.658;12.704;2022-10-16T03:53:03;95954.94;;;15.85;87.05
21900;BME280;11114;50.658;12.704;2022-10-16T03:55:30;95936.69;;;15.77;87.61
21900;BME280;11114;50.658;12.704;2022-10-16T03:57:57;95938.25;;;15.65;88.62
21900;BME280;11114;50.658;12.704;2022-10-16T04:00:23;95929.69;;;15.57;89.35
21900;BME280;11114;50.658;12.704;2022-10-16T04:02:50;95948.69;;;15.52;89.76
21900;BME280;11114;50.658;12.704;2022-10-16T04:05:17;95948.25;;;15.49;90.54
21900;BME280;11114;50.658;12.704;2022-10-16T04:07:44;95957.56;;;15.51;90.67
21900;BME280;11114;50.658;12.704;2022-10-16T04:10:10;95958.00;;;15.55;90.73
21900;BME280;11114;50.658;12.704;2022-10-16T04:12:37;95950.53;;;15.58;90.46
21900;BME280;11114;50.658;12.704;2022-10-16T04:15:04;95935.56;;;15.59;90.34
21900;BME280;11114;50.658;12.704;2022-10-16T04:17:31;95930.50;;;15.57;90.41
21900;BME280;11114;50.658;12.704;2022-10-16T04:19:58;95941.41;;;15.54;90.62
21900;BME280;11114;50.658;12.704;2022-10-16T04:22:25;95947.47;;;15.55;90.80
21900;BME280;11114;50.658;12.704;2022-10-16T04:24:52;95947.88;;;15.52;91.00
21900;BME280;11114;50.658;12.704;2022-10-16T04:27:19;95948.69;;;15.52;90.85
21900;BME280;11114;50.658;12.704;2022-10-16T04:29:46;95949.88;;;15.50;91.10
21900;BME280;11114;50.658;12.704;2022-10-16T04:32:13;95960.22;;;15.51;91.13
21900;BME280;11114;50.658;12.704;2022-10-16T04:34:39;95948.06;;;15.50;91.03
21900;BME280;11114;50.658;12.704;2022-10-16T04:37:06;95950.88;;;15.49;91.04
21900;BME280;11114;50.658;12.704;2022-10-16T04:39:33;95955.94;;;15.50;91.02
21900;BME280;11114;50.658;12.704;2022-10-16T04:42:00;95963.47;;;15.53;90.90
21900;BME280;11114;50.658;12.704;2022-10-16T04:44:27;95972.56;;;15.51;90.84
21900;BME280;11114;50.658;12.704;2022-10-16T04:46:54;95974.19;;;15.52;90.72
21900;BME280;11114;50.658;12.704;2022-10-16T04:49:21;95987.34;;;15.52;90.83
21900;BME280;11114;50.658;12.704;2022-10-16T04:51:48;96004.94;;;15.51;90.80
21900;BME280;11114;50.658;12.704;2022-10-16T04:54:14;95998.88;;;15.51;90.85
21900;BME280;11114;50.658;12.704;2022-10-16T04:56:41;95992.97;;;15.49;90.67
21900;BME280;11114;50.658;12.704;2022-10-16T04:59:14;95987.34;;;15.52;90.56
21900;BME280;11114;50.658;12.704;2022-10-16T05:01:41;95980.88;;;15.54;90.42
21900;BME280;11114;50.658;12.704;2022-10-16T05:04:08;95981.69;;;15.55;90.29
21900;BME280;11114;50.658;12.704;2022-10-16T05:06:35;95987.94;;;15.54;90.04
21900;BME280;11114;50.658;12.704;2022-10-16T05:09:02;95990.41;;;15.55;89.90
21900;BME280;11114;50.658;12.704;2022-10-16T05:11:29;95992.22;;;15.55;89.82
21900;BME280;11114;50.658;12.704;2022-10-16T05:13:56;95988.56;;;15.56;89.66
21900;BME280;11114;50.658;12.704;2022-10-16T05:16:23;95996.47;;;15.56;89.53
21900;BME280;11114;50.658;12.704;2022-10-16T05:18:51;96009.81;;;15.54;89.42
21900;BME280;11114;50.658;12.704;2022-10-16T05:21:21;96020.72;;;15.51;89.43
21900;BME280;11114;50.658;12.704;2022-10-16T05:23:48;96011.41;;;15.49;89.63
21900;BME280;11114;50.658;12.704;2022-10-16T05:26:15;96020.28;;;15.48;89.54
21900;BME280;11114;50.658;12.704;2022-10-16T05:28:42;96020.28;;;15.48;89.31
21900;BME280;11114;50.658;12.704;2022-10-16T05:31:09;96021.91;;;15.49;89.57
21900;BME280;11114;50.658;12.704;2022-10-16T05:33:36;96017.28;;;15.51;89.53
21900;BME280;11114;50.658;12.704;2022-10-16T05:36:05;96017.28;;;15.51;89.85
21900;BME280;11114;50.658;12.704;2022-10-16T05:38:34;96019.72;;;15.52;90.05
21900;BME280;11114;50.658;12.704;2022-10-16T05:41:01;96018.53;;;15.55;89.47
21900;BME280;11114;50.658;12.704;2022-10-16T05:43:29;96029.66;;;15.57;89.51
21900;BME280;11114;50.658;12.704;2022-10-16T05:45:58;96017.16;;;15.59;89.59
21900;BME280;11114;50.658;12.704;2022-10-16T05:48:25;96018.94;;;15.58;89.71
21900;BME280;11114;50.658;12.704;2022-10-16T05:50:57;96029.47;;;15.58;89.83
21900;BME280;11114;50.658;12.704;2022-10-16T05:53:24;96021.56;;;15.58;89.96
21900;BME280;11114;50.658;12.704;2022-10-16T05:55:53;96023.22;;;15.59;89.88
21900;BME280;11114;50.658;12.704;2022-10-16T05:58:21;96022.03;;;15.62;89.91
21900;BME280;11114;50.658;12.704;2022-10-16T06:01:02;96018.38;;;15.63;89.88
21900;BME280;11114;50.658;12.704;2022-10-16T06:03:29;96022.84;;;15.62;89.89
21900;BME280;11114;50.658;12.704;2022-10-16T06:05:56;96035.78;;;15.63;89.98
21900;BME280;11114;50.658;12.704;2022-10-16T06:08:23;96046.16;;;15.65;89.86
21900;BME280;11114;50.658;12.704;2022-10-16T06:11:00;96049.56;;;15.65;90.05
21900;BME280;11114;50.658;12.704;2022-10-16T06:13:28;96056.09;;;15.69;89.91
21900;BME280;11114;50.658;12.704;2022-10-16T06:15:57;96057.53;;;15.72;89.79
21900;BME280;11114;50.658;12.704;2022-10-16T06:18:25;96052.06;;;15.73;89.81
21900;BME280;11114;50.658;12.704;2022-10-16T06:20:52;96056.31;;;15.74;89.83
21900;BME280;11114;50.658;12.704;2022-10-16T06:23:19;96048.22;;;15.76;89.96
21900;BME280;11114;50.658;12.704;2022-10-16T06:25:45;96059.19;;;15.79;90.19
21900;BME280;11114;50.658;12.704;2022-10-16T06:28:16;96066.28;;;15.79;90.31
21900;BME280;11114;50.658;12.704;2022-10-16T06:30:43;96065.06;;;15.81;90.30
21900;BME280;11114;50.658;12.704;2022-10-16T06:33:11;96068.34;;;15.83;90.43
21900;BME280;11114;50.658;12.704;2022-10-16T06:35:37;96068.97;;;15.85;90.54
21900;BME280;11114;50.658;12.704;2022-10-16T06:38:04;96069.59;;;15.87;90.69
21900;BME280;11114;50.658;12.704;2022-10-16T06:40:31;96067.19;;;15.92;90.67
21900;BME280;11114;50.658;12.704;2022-10-16T06:42:58;96081.41;;;15.98;90.61
21900;BME280;11114;50.658;12.704;2022-10-16T06:45:25;96085.66;;;15.99;90.50
21900;BME280;11114;50.658;12.704;2022-10-16T06:47:52;96097.63;;;16.01;90.65
21900;BME280;11114;50.658;12.704;2022-10-16T06:50:19;96097.25;;;16.04;90.57
21900;BME280;11114;50.658;12.704;2022-10-16T06:52:46;96097.84;;;16.06;90.65
21900;BME280;11114;50.658;12.704;2022-10-16T06:55:13;96098.47;;;16.08;90.62
21900;BME280;11114;50.658;12.704;2022-10-16T06:57:39;96098.09;;;16.11;90.52
21900;BME280;11114;50.658;12.704;2022-10-16T07:00:07;96094.88;;;16.16;90.45
21900;BME280;11114;50.658;12.704;2022-10-16T07:02:34;96096.09;;;16.20;90.44
21900;BME280;11114;50.658;12.704;2022-10-16T07:05:00;96103.44;;;16.24;90.40
21900;BME280;11114;50.658;12.704;2022-10-16T07:07:27;96107.31;;;16.28;90.30
21900;BME280;11114;50.658;12.704;2022-10-16T07:09:54;96111.22;;;16.32;90.32
21900;BME280;11114;50.658;12.704;2022-10-16T07:12:21;96107.38;;;16.35;90.21
21900;BME280;11114;50.658;12.704;2022-10-16T07:14:49;96114.09;;;16.37;90.16
21900;BME280;11114;50.658;12.704;2022-10-16T07:17:18;96131.75;;;16.43;90.12
21900;BME280;11114;50.658;12.704;2022-10-16T07:19:45;96138.28;;;16.47;90.20
21900;BME280;11114;50.658;12.704;2022-10-16T07:22:12;96129.94;;;16.50;89.87
21900;BME280;11114;50.658;12.704;2022-10-16T07:24:39;96135.69;;;16.53;89.89
21900;BME280;11114;50.658;12.704;2022-10-16T07:27:06;96147.66;;;16.56;89.81
21900;BME280;11114;50.658;12.704;2022-10-16T07:29:33;96146.22;;;16.60;89.79
21900;BME280;11114;50.658;12.704;2022-10-16T07:32:01;96137.94;;;16.63;89.69
21900;BME280;11114;50.658;12.704;2022-10-16T07:34:28;96143.84;;;16.65;89.54
21900;BME280;11114;50.658;12.704;2022-10-16T07:36:54;96140.19;;;16.66;89.37
21900;BME280;11114;50.658;12.704;2022-10-16T07:39:21;96149.31;;;16.70;89.74
21900;BME280;11114;50.658;12.704;2022-10-16T07:41:48;96143.47;;;16.74;89.51
21900;BME280;11114;50.658;12.704;2022-10-16T07:44:15;96144.50;;;16.80;89.26
21900;BME280;11114;50.658;12.704;2022-10-16T07:46:42;96138.66;;;16.84;89.18
21900;BME280;11114;50.658;12.704;2022-10-16T07:49:09;96133.41;;;16.91;89.34
21900;BME280;11114;50.658;12.704;2022-10-16T07:51:39;96136.25;;;16.96;89.19
21900;BME280;11114;50.658;12.704;2022-10-16T07:54:07;96136.66;;;16.99;89.01
21900;BME280;11114;50.658;12.704;2022-10-16T07:56:34;96135.28;;;17.03;88.71
21900;BME280;11114;50.658;12.704;2022-10-16T07:59:05;96134.06;;;17.06;88.37
21900;BME280;11114;50.658;12.704;2022-10-16T08:01:32;96144.03;;;17.10;88.28
21900;BME280;11114;50.658;12.704;2022-10-16T08:03:58;96145.66;;;17.11;87.87
21900;BME280;11114;50.658;12.704;2022-10-16T08:06:25;96143.63;;;17.13;87.62
21900;BME280;11114;50.658;12.704;2022-10-16T08:08:54;96144.66;;;17.19;87.99
21900;BME280;11114;50.658;12.704;2022-10-16T08:11:21;96144.06;;;17.23;87.87
21900;BME280;11114;50.658;12.704;2022-10-16T08:13:49;96151.00;;;17.31;87.73
21900;BME280;11114;50.658;12.704;2022-10-16T08:16:16;96150.22;;;17.36;87.29
21900;BME280;11114;50.658;12.704;2022-10-16T08:18:43;96154.88;;;17.34;86.11
21900;BME280;11114;50.658;12.704;2022-10-16T08:21:15;96159.34;;;17.34;86.04
21900;BME280;11114;50.658;12.704;2022-10-16T08:23:47;96159.16;;;17.35;86.19
21900;BME280;11114;50.658;12.704;2022-10-16T08:26:22;96165.22;;;17.36;86.21
21900;BME280;11114;50.658;12.704;2022-10-16T08:28:50;96171.34;;;17.36;85.93
21900;BME280;11114;50.658;12.704;2022-10-16T08:31:18;96163.22;;;17.38;85.66
21900;BME280;11114;50.658;12.704;2022-10-16T08:33:45;96181.47;;;17.39;85.71
21900;BME280;11114;50.658;12.704;2022-10-16T08:36:14;96190.63;;;17.43;85.83
21900;BME280;11114;50.658;12.704;2022-10-16T08:38:41;96188.63;;;17.45;85.31
21900;BME280;11114;50.658;12.704;2022-10-16T08:44:10;96188.81;;;17.50;85.22
21900;BME280;11114;50.658;12.704;2022-10-16T08:46:58;96184.16;;;17.52;84.49
21900;BME280;11114;50.658;12.704;2022-10-16T08:49:29;96185.78;;;17.53;84.72
21900;BME280;11114;50.658;12.704;2022-10-16T08:51:57;96201.03;;;17.58;84.71
21900;BME280;11114;50.658;12.704;2022-10-16T08:54:34;96188.25;;;17.61;84.38
21900;BME280;11114;50.658;12.704;2022-10-16T08:57:19;96190.91;;;17.68;84.38
21900;BME280;11114;50.658;12.704;2022-10-16T08:59:51;96190.91;;;17.74;84.40
21900;BME280;11114;50.658;12.704;2022-10-16T09:02:35;96192.94;;;17.79;83.97
21900;BME280;11114;50.658;12.704;2022-10-16T09:10:48;96197.22;;;17.86;82.19
21900;BME280;11114;50.658;12.704;2022-10-16T09:13:28;96200.66;;;17.87;81.94
21900;BME280;11114;50.658;12.704;2022-10-16T09:18:41;96199.84;;;17.86;80.95
21900;BME280;11114;50.658;12.704;2022-10-16T09:21:15;96211.22;;;17.87;81.28
21900;BME280;11114;50.658;12.704;2022-10-16T09:23:44;96212.47;;;17.91;81.18
21900;BME280;11114;50.658;12.704;2022-10-16T09:26:14;96216.91;;;17.90;81.33
21900;BME280;11114;50.658;12.704;2022-10-16T09:28:42;96215.91;;;17.91;80.78
21900;BME280;11114;50.658;12.704;2022-10-16T09:31:18;96214.09;;;17.92;80.98
21900;BME280;11114;50.658;12.704;2022-10-16T09:33:58;96222.44;;;17.95;81.09
21900;BME280;11114;50.658;12.704;2022-10-16T09:36:27;96222.22;;;17.97;81.38
21900;BME280;11114;50.658;12.704;2022-10-16T09:39:06;96231.56;;;17.99;80.43
21900;BME280;11114;50.658;12.704;2022-10-16T09:41:36;96233.19;;;18.00;80.49
21900;BME280;11114;50.658;12.704;2022-10-16T09:44:13;96235.25;;;17.98;79.55
21900;BME280;11114;50.658;12.704;2022-10-16T09:46:42;96237.88;;;17.98;79.62
21900;BME280;11114;50.658;12.704;2022-10-16T09:49:24;96249.03;;;18.00;79.38
21900;BME280;11114;50.658;12.704;2022-10-16T09:52:09;96250.66;;;18.01;79.50
21900;BME280;11114;50.658;12.704;2022-10-16T09:54:37;96257.59;;;18.02;79.67
21900;BME280;11114;50.658;12.704;2022-10-16T09:57:15;96252.09;;;18.04;79.07
21900;BME280;11114;50.658;12.704;2022-10-16T09:59:49;96259.22;;;18.03;79.30
21900;BME280;11114;50.658;12.704;2022-10-16T10:02:19;96255.78;;;18.03;79.03
21900;BME280;11114;50.658;12.704;2022-10-16T10:04:53;96266.13;;;18.04;79.22
21900;BME280;11114;50.658;12.704;2022-10-16T10:07:25;96270.41;;;18.05;79.22
21900;BME280;11114;50.658;12.704;2022-10-16T10:09:55;96277.09;;;18.08;79.43
21900;BME280;11114;50.658;12.704;2022-10-16T10:12:27;96266.94;;;18.11;79.49
21900;BME280;11114;50.658;12.704;2022-10-16T10:15:33;96275.28;;;18.14;79.57
21900;BME280;11114;50.658;12.704;2022-10-16T10:20:34;96273.09;;;18.24;79.80
21900;BME280;11114;50.658;12.704;2022-10-16T10:23:20;96259.47;;;18.27;79.25
21900;BME280;11114;50.658;12.704;2022-10-16T10:25:55;96264.34;;;18.30;79.25
21900;BME280;11114;50.658;12.704;2022-10-16T10:36:38;96257.22;;;18.44;78.30
21900;BME280;11114;50.658;12.704;2022-10-16T10:47:38;96258.44;;;18.80;78.34
21900;BME280;11114;50.658;12.704;2022-10-16T11:01:06;96266.69;;;19.22;77.18
21900;BME280;11114;50.658;12.704;2022-10-16T11:03:46;96254.84;;;19.31;76.34
21900;BME280;11114;50.658;12.704;2022-10-16T11:09:19;96256.59;;;19.57;76.11
21900;BME280;11114;50.658;12.704;2022-10-16T11:11:53;96260.16;;;19.75;75.57
21900;BME280;11114;50.658;12.704;2022-10-16T11:14:30;96254.75;;;20.01;74.51
21900;BME280;11114;50.658;12.704;2022-10-16T11:17:08;96256.19;;;20.28;73.07
21900;BME280;11114;50.658;12.704;2022-10-16T11:19:50;96259.63;;;20.59;73.32
21900;BME280;11114;50.658;12.704;2022-10-16T11:22:35;96260.91;;;20.81;72.23
21900;BME280;11114;50.658;12.704;2022-10-16T11:25:18;96259.97;;;20.93;71.58
21900;BME280;11114;50.658;12.704;2022-10-16T11:27:58;96267.50;;;20.96;71.32
21900;BME280;11114;50.658;12.704;2022-10-16T11:30:30;96265.94;;;20.89;70.68
21900;BME280;11114;50.658;12.704;2022-10-16T11:46:35;96281.66;;;20.35;70.71
21900;BME280;11114;50.658;12.704;2022-10-16T11:49:26;96278.63;;;20.32;71.14
21900;BME280;11114;50.658;12.704;2022-10-16T11:52:02;96285.13;;;20.36;70.89
21900;BME280;11114;50.658;12.704;2022-10-16T11:54:57;96277.47;;;20.46;71.97
21900;BME280;11114;50.658;12.704;2022-10-16T11:57:40;96274.00;;;20.52;68.74
21900;BME280;11114;50.658;12.704;2022-10-16T12:05:58;96274.31;;;20.86;69.29
21900;BME280;11114;50.658;12.704;2022-10-16T12:08:27;96268.59;;;21.07;69.36
21900;BME280;11114;50.658;12.704;2022-10-16T12:11:09;96274.66;;;21.14;68.41
21900;BME280;11114;50.658;12.704;2022-10-16T12:13:39;96274.53;;;21.27;67.74
21900;BME280;11114;50.658;12.704;2022-10-16T12:18:44;96286.56;;;21.29;66.03
21900;BME280;11114;50.658;12.704;2022-10-16T12:21:13;96287.44;;;21.23;67.39
21900;BME280;11114;50.658;12.704;2022-10-16T12:23:49;96287.03;;;21.20;66.99
21900;BME280;11114;50.658;12.704;2022-10-16T12:26:31;96290.53;;;21.20;67.17
21900;BME280;11114;50.658;12.704;2022-10-16T12:31:50;96302.75;;;21.03;68.20
21900;BME280;11114;50.658;12.704;2022-10-16T12:34:41;96304.06;;;20.94;68.83
21900;BME280;11114;50.658;12.704;2022-10-16T12:37:21;96309.66;;;20.86;68.30
21900;BME280;11114;50.658;12.704;2022-10-16T12:39:51;96315.84;;;20.74;68.85
21900;BME280;11114;50.658;12.704;2022-10-16T12:44:54;96308.63;;;20.57;69.69
21900;BME280;11114;50.658;12.704;2022-10-16T12:49:53;96313.16;;;20.50;70.78
21900;BME280;11114;50.658;12.704;2022-10-16T12:52:29;96318.06;;;20.53;70.88
21900;BME280;11114;50.658;12.704;2022-10-16T12:55:01;96315.97;;;20.55;71.05
21900;BME280;11114;50.658;12.704;2022-10-16T13:09:35;96323.66;;;20.38;71.26
21900;BME280;11114;50.658;12.704;2022-10-16T13:14:54;96317.25;;;20.21;71.89
21900;BME280;11114;50.658;12.704;2022-10-16T13:23:13;96317.56;;;20.00;72.76
21900;BME280;11114;50.658;12.704;2022-10-16T13:28:32;96331.44;;;19.89;73.04
21900;BME280;11114;50.658;12.704;2022-10-16T13:31:01;96328.16;;;19.87;73.58
21900;BME280;11114;50.658;12.704;2022-10-16T13:36:02;96336.09;;;19.94;74.00
21900;BME280;11114;50.658;12.704;2022-10-16T13:38:34;96327.16;;;19.95;74.37
21900;BME280;11114;50.658;12.704;2022-10-16T13:41:16;96328.16;;;19.94;74.07
21900;BME280;11114;50.658;12.704;2022-10-16T13:43:51;96324.13;;;19.85;73.15
21900;BME280;11114;50.658;12.704;2022-10-16T13:46:24;96331.50;;;19.77;72.99
21900;BME280;11114;50.658;12.704;2022-10-16T13:49:12;96330.91;;;19.75;72.85
21900;BME280;11114;50.658;12.704;2022-10-16T13:51:39;96334.16;;;19.70;72.98
21900;BME280;11114;50.658;12.704;2022-10-16T13:54:09;96329.88;;;19.69;73.50
21900;BME280;11114;50.658;12.704;2022-10-16T13:56:39;96334.56;;;19.67;73.25
21900;BME280;11114;50.658;12.704;2022-10-16T13:59:22;96345.19;;;19.67;73.54
21900;BME280;11114;50.658;12.704;2022-10-16T14:01:52;96350.28;;;19.69;73.47
21900;BME280;11114;50.658;12.704;2022-10-16T14:04:21;96344.75;;;19.70;74.05
21900;BME280;11114;50.658;12.704;2022-10-16T14:06:50;96353.94;;;19.74;73.98
21900;BME280;11114;50.658;12.704;2022-10-16T14:09:24;96350.66;;;19.79;74.07
21900;BME280;11114;50.658;12.704;2022-10-16T14:12:02;96344.53;;;19.78;73.79
21900;BME280;11114;50.658;12.704;2022-10-16T14:14:40;96348.41;;;19.76;73.23
21900;BME280;11114;50.658;12.704;2022-10-16T14:17:15;96353.50;;;19.77;73.88
21900;BME280;11114;50.658;12.704;2022-10-16T14:19:46;96340.00;;;19.85;74.16
21900;BME280;11114;50.658;12.704;2022-10-16T14:22:40;96338.75;;;19.94;74.29
21900;BME280;11114;50.658;12.704;2022-10-16T14:28:04;96353.34;;;20.22;74.54
21900;BME280;11114;50.658;12.704;2022-10-16T14:30:35;96358.16;;;20.32;73.78
21900;BME280;11114;50.658;12.704;2022-10-16T14:33:05;96359.38;;;20.36;73.28
21900;BME280;11114;50.658;12.704;2022-10-16T14:35:37;96359.53;;;20.41;72.96
21900;BME280;11114;50.658;12.704;2022-10-16T14:38:06;96363.00;;;20.41;72.80
21900;BME280;11114;50.658;12.704;2022-10-16T14:40:35;96366.25;;;20.43;72.58
21900;BME280;11114;50.658;12.704;2022-10-16T14:43:04;96366.66;;;20.40;72.32
21900;BME280;11114;50.658;12.704;2022-10-16T14:45:34;96364.00;;;20.40;72.64
21900;BME280;11114;50.658;12.704;2022-10-16T14:48:16;96363.59;;;20.43;72.54
21900;BME280;11114;50.658;12.704;2022-10-16T14:50:45;96368.09;;;20.43;72.75
21900;BME280;11114;50.658;12.704;2022-10-16T14:53:12;96368.50;;;20.40;72.87
21900;BME280;11114;50.658;12.704;2022-10-16T14:55:40;96375.44;;;20.41;72.96
21900;BME280;11114;50.658;12.704;2022-10-16T14:58:20;96371.13;;;20.46;73.26
21900;BME280;11114;50.658;12.704;2022-10-16T15:00:47;96373.78;;;20.46;73.00
21900;BME280;11114;50.658;12.704;2022-10-16T15:03:15;96379.09;;;20.46;72.99
21900;BME280;11114;50.658;12.704;2022-10-16T15:05:46;96384.59;;;20.45;72.57
21900;BME280;11114;50.658;12.704;2022-10-16T15:08:16;96379.13;;;20.40;72.54
21900;BME280;11114;50.658;12.704;2022-10-16T15:10:46;96374.84;;;20.39;72.92